New York, NY (10185)

5:01 AM EST on January 26, 2015 (GMT -0500)
WCBS TELEVISION | Change Station
CLOSE
Current Station
Personal Weather Station
Location: New York, NY
Elevation: 13 ft
Nearby Weather Stations
Active Advisory: Blizzard Warning

Elev 13 ft 40.77 °N, 73.99 °W | Updated 8 seconds ago

Overcast
Overcast
26.2 °F
Feels Like 19 °F
N
5.9
Wind Variable Wind from ENE
Gusts 12.0 mph

Today
High -- | Low -- °F
--% Chance of Precip.
Yesterday
High -- | Low -- °F
Precip. -- in
7:11 AM 5:05 PM
Waxing Crescent, 41% visible
Pressure 30.01 in
Visibility 10.0 miles
Clouds Mostly Cloudy 3800 ft
Overcast 5500 ft
Windchill 19 °F
Dew Point 12 °F
Humidity 54%
Rainfall 0.00 in
Snow Depth Not available.
UV 0 out of 12
Pollen .10 out of 12
Air Quality Not available.
Flu Activity Not available.
METAR KNYC 260951Z AUTO 05010KT 10SM BKN038 OVC055 M04/M14 A3003 RMK AO2 SNB12E21 SLP161 P0000 T10391144

More Conditions Fewer Conditions

Pressure 30.01 in
Visibility 10.0 miles
Clouds Mostly Cloudy 3800 ft
Overcast 5500 ft
Windchill 19 °F
Dew Point 12 °F
Humidity 54%
Rainfall 0.00 in
Snow Depth Not available.
UV 0 out of 12
Pollen .10 out of 12
Air Quality Not available.
Flu Activity Not available.
METAR KNYC 260951Z AUTO 05010KT 10SM BKN038 OVC055 M04/M14 A3003 RMK AO2 SNB12E21 SLP161 P0000 T10391144

More Conditions Fewer Conditions

10-Day Weather Forecast

Almanac

Astronomy

Jan. 26, 2015 Rise Set
Actual Time
Civil Twilight
Nautical Twilight
Astronomical Twilight
Moon
Length of Visible Light
Length of Day
Tomorrow will be .
, % of the Moon is Illuminated

Today's Extremes

State Highs State Lows

Community

WunderPhotos

Upload Photos

1,790,163 photos uploaded!

WunderBlogs® & News

Nearby

Air Quality

  Air Quality AQ Index Pollutant
Not available.

Snow Depth

Station Depth Elevation

Earthquake Activity

City Distance Mag. Time & Date
Minimum magnitude displayed is 2.5.

Coastal Water Temperatures

Place Temperature

Nearby Weather Stations